Terminal Aerodrome Forecast
Issued by NWS Quad Cities IA IL

Home | Current Version | Previous Version | Text Only | Print | Product List | Glossary On
Versions: 1 2 3 4 5 6 7 8 9 10 11 12 13 14 15 16 17 18 19 20 21 22
911
FTUS43 KDVN 272337
TAFMLI
TAF
KMLI 272337Z 2800/2824 17012KT P6SM SCT030 BKN060
      TEMPO 2802/2804 4SM -TSRA BKN035CB
     FM280400 17006KT 4SM BR VCSH BKN040
     FM281500 20011KT P6SM BKN040 PROB30 2821/2824 4SM TSRA
      BKN035CB=

USA.gov is the U.S. government's official web portal to all federal, state and local government web resources and services.